Time;durP1;ratioP1;P1;durP2;ratioP2;P2;SDS_P1;SDS_P2;PMS_P1;PMS_P2;Temp;Humidity;BMP_temperature;BMP_pressure;BME280_temperature;BME280_humidity;BME280_pressure;Samples;Min_cycle;Max_cycle;Signal;HPM_P1;HPM_P2
2021/12/30 00:02:21;;;;;;;49.30;15.40;;;10.00;99.90;;;;;;4839738;29;20063;-80
2021/12/30 00:04:47;;;;;;;49.22;17.08;;;10.00;99.90;;;;;;4868012;29;20079;-85
2021/12/30 00:07:14;;;;;;;60.58;20.05;;;10.00;99.90;;;;;;4847032;29;20037;-85
2021/12/30 00:09:40;;;;;;;82.45;24.02;;;10.00;99.90;;;;;;4849263;29;20044;-82
2021/12/30 00:12:07;;;;;;;68.03;19.52;;;10.00;99.90;;;;;;4860468;29;20452;-86
2021/12/30 00:14:34;;;;;;;47.65;16.75;;;10.00;99.90;;;;;;4844469;29;20041;-86
2021/12/30 00:17:01;;;;;;;47.22;15.80;;;10.00;99.90;;;;;;4859462;29;20044;-86
2021/12/30 00:19:28;;;;;;;46.45;14.75;;;9.90;99.90;;;;;;4875366;29;20044;-85
2021/12/30 00:21:54;;;;;;;60.95;19.85;;;9.90;99.90;;;;;;4874224;29;20041;-85
2021/12/30 00:24:21;;;;;;;70.25;21.33;;;9.90;99.90;;;;;;4831259;29;20040;-85
2021/12/30 00:26:48;;;;;;;69.85;23.05;;;10.00;99.90;;;;;;4875236;29;20044;-82
2021/12/30 00:29:14;;;;;;;65.47;20.73;;;10.00;99.90;;;;;;4865417;29;20033;-84
2021/12/30 00:31:41;;;;;;;70.57;23.15;;;10.10;99.90;;;;;;4884314;29;20042;-86
2021/12/30 00:34:07;;;;;;;72.53;23.20;;;10.10;99.90;;;;;;4850074;29;20048;-84
2021/12/30 00:36:34;;;;;;;67.63;22.58;;;10.20;99.90;;;;;;4860389;29;22511;-81
2021/12/30 00:39:01;;;;;;;65.05;22.98;;;10.20;99.90;;;;;;4827594;29;20053;-84
2021/12/30 00:41:27;;;;;;;70.90;24.23;;;10.30;99.90;;;;;;4858781;29;20489;-81
2021/12/30 00:43:54;;;;;;;74.07;23.35;;;10.30;99.90;;;;;;4840053;29;20029;-80
2021/12/30 00:46:20;;;;;;;59.28;22.02;;;10.40;99.90;;;;;;4849533;29;20516;-82
2021/12/30 00:48:47;;;;;;;73.28;23.23;;;10.40;99.90;;;;;;4829203;29;20481;-81
2021/12/30 00:51:13;;;;;;;79.65;23.70;;;10.40;99.90;;;;;;4856448;29;20490;-79
2021/12/30 00:53:41;;;;;;;62.80;22.00;;;10.40;99.90;;;;;;4872175;29;20048;-82
2021/12/30 00:56:08;;;;;;;68.35;20.80;;;10.50;99.90;;;;;;4845205;29;20044;-82
2021/12/30 00:58:34;;;;;;;56.85;19.73;;;10.50;99.90;;;;;;4862454;29;20033;-82
2021/12/30 01:01:03;;;;;;;57.42;19.27;;;10.50;99.90;;;;;;4828459;29;20049;-81
2021/12/30 01:03:30;;;;;;;50.70;17.75;;;10.60;99.90;;;;;;4852629;29;20056;-81
2021/12/30 01:06:00;;;;;;;57.70;17.58;;;10.60;99.90;;;;;;4868832;29;20033;-82
2021/12/30 01:08:26;;;;;;;46.53;16.13;;;10.60;99.90;;;;;;4841467;29;20032;-82
2021/12/30 01:10:53;;;;;;;56.80;15.93;;;10.60;99.90;;;;;;4861127;29;20489;-81
2021/12/30 01:13:28;;;;;;;67.90;16.95;;;10.60;99.90;;;;;;4858867;29;20021;-82
2021/12/30 01:21:11;;;;;;;60.10;16.43;;;10.70;99.90;;;;;;4871230;29;20505;-81
2021/12/30 01:23:41;;;;;;;56.92;15.32;;;10.70;99.90;;;;;;4872769;29;20483;-81
2021/12/30 01:26:09;;;;;;;64.03;15.88;;;10.70;99.90;;;;;;4854436;29;20409;-81
2021/12/30 01:28:40;;;;;;;47.08;13.55;;;10.80;99.90;;;;;;4866354;29;20032;-82
2021/12/30 01:31:08;;;;;;;48.83;13.50;;;10.80;99.90;;;;;;4868547;29;20032;-81
2021/12/30 01:33:44;;;;;;;56.17;14.73;;;10.80;99.90;;;;;;4848960;29;20049;-81
2021/12/30 01:36:11;;;;;;;55.15;13.57;;;10.90;99.90;;;;;;4853129;29;20033;-82
2021/12/30 01:38:43;;;;;;;42.15;11.65;;;10.90;99.90;;;;;;4859732;29;20064;-80
2021/12/30 01:41:13;;;;;;;48.75;12.02;;;10.90;99.90;;;;;;4867219;29;20048;-81
2021/12/30 01:43:42;;;;;;;53.25;12.63;;;10.90;99.90;;;;;;4839267;29;20057;-80
2021/12/30 01:46:11;;;;;;;52.72;12.70;;;11.00;99.90;;;;;;4839176;29;20040;-81
2021/12/30 01:48:39;;;;;;;55.85;12.23;;;11.00;99.90;;;;;;4841464;29;20053;-81
2021/12/30 01:51:07;;;;;;;57.28;12.82;;;11.00;99.90;;;;;;4868875;29;20045;-80
2021/12/30 01:53:34;;;;;;;58.85;15.35;;;11.00;99.90;;;;;;4867827;29;20033;-80
2021/12/30 01:56:08;;;;;;;62.08;16.20;;;11.00;99.90;;;;;;4867345;29;20059;-80
2021/12/30 01:58:37;;;;;;;46.55;13.90;;;11.10;99.90;;;;;;4828007;29;20037;-81
2021/12/30 02:01:04;;;;;;;55.78;16.33;;;11.10;99.90;;;;;;4853253;29;21245;-80
2021/12/30 02:03:31;;;;;;;62.75;18.05;;;11.20;99.90;;;;;;4839050;29;20052;-81
2021/12/30 02:06:01;;;;;;;63.78;18.33;;;11.20;99.90;;;;;;4840259;29;20048;-81
2021/12/30 02:08:34;;;;;;;60.83;16.30;;;11.20;99.90;;;;;;4856572;29;20036;-80
2021/12/30 02:11:00;;;;;;;53.30;15.45;;;11.20;99.90;;;;;;4823028;29;20040;-85
2021/12/30 02:13:28;;;;;;;53.45;15.05;;;11.30;99.90;;;;;;4853177;29;20033;-84
2021/12/30 02:16:02;;;;;;;54.35;15.45;;;11.30;99.90;;;;;;4857735;29;20056;-83
2021/12/30 02:18:30;;;;;;;59.92;16.58;;;11.30;99.90;;;;;;4825224;29;20042;-83
2021/12/30 02:20:59;;;;;;;50.30;14.95;;;11.40;99.90;;;;;;4843000;29;20037;-84
2021/12/30 02:23:34;;;;;;;76.25;20.65;;;11.30;99.90;;;;;;4870643;29;20053;-83
2021/12/30 02:26:16;;;;;;;73.43;18.98;;;11.40;99.90;;;;;;4856835;29;20595;-84
2021/12/30 02:28:45;;;;;;;59.90;18.43;;;11.40;99.90;;;;;;4875276;29;20036;-83
2021/12/30 02:31:24;;;;;;;61.92;18.02;;;11.40;99.90;;;;;;4854798;29;20036;-84
2021/12/30 02:33:51;;;;;;;85.15;22.92;;;11.40;99.90;;;;;;4853156;29;20033;-83
2021/12/30 02:36:23;;;;;;;73.88;21.30;;;11.40;99.90;;;;;;4871184;29;20046;-84
2021/12/30 02:38:50;;;;;;;76.63;22.15;;;11.50;99.90;;;;;;4870762;29;20025;-84
2021/12/30 02:41:19;;;;;;;79.65;21.60;;;11.50;99.90;;;;;;4838887;29;20493;-83
2021/12/30 02:43:48;;;;;;;59.15;19.13;;;11.50;99.90;;;;;;4870430;29;20025;-84
2021/12/30 02:46:19;;;;;;;71.15;20.30;;;11.50;99.90;;;;;;4857173;29;20061;-84
2021/12/30 02:48:46;;;;;;;53.93;17.13;;;11.50;99.90;;;;;;4839549;29;20558;-80
2021/12/30 02:51:12;;;;;;;58.00;17.02;;;11.50;99.90;;;;;;4840366;29;20033;-80
2021/12/30 02:53:39;;;;;;;62.65;16.83;;;11.60;99.90;;;;;;4865211;29;20041;-79
2021/12/30 02:56:06;;;;;;;54.67;15.45;;;11.60;99.90;;;;;;4836279;29;20040;-79
2021/12/30 02:58:34;;;;;;;66.13;17.08;;;11.60;99.90;;;;;;4852492;29;20017;-79
2021/12/30 03:01:09;;;;;;;71.80;16.95;;;11.60;99.90;;;;;;4865928;29;20051;-79
2021/12/30 03:03:36;;;;;;;69.97;17.05;;;11.60;99.90;;;;;;4864028;29;20042;-78
2021/12/30 03:06:05;;;;;;;81.38;18.55;;;11.60;99.90;;;;;;4828302;29;20054;-84
2021/12/30 03:08:32;;;;;;;61.95;17.77;;;11.60;99.90;;;;;;4831372;29;20029;-84
2021/12/30 03:11:00;;;;;;;74.05;19.35;;;11.60;99.90;;;;;;4860683;29;20037;-84
2021/12/30 03:13:31;;;;;;;47.03;14.82;;;11.60;99.90;;;;;;4860592;29;20927;-84
2021/12/30 03:16:05;;;;;;;52.75;15.23;;;11.60;99.90;;;;;;4815950;29;20049;-84
2021/12/30 03:18:33;;;;;;;54.92;16.88;;;11.60;99.90;;;;;;4839043;29;20029;-84
2021/12/30 03:21:00;;;;;;;65.07;17.27;;;11.60;99.90;;;;;;4846874;29;20037;-83
2021/12/30 03:23:27;;;;;;;48.45;15.38;;;11.60;99.90;;;;;;4856648;29;20060;-84
2021/12/30 03:25:53;;;;;;;90.25;18.33;;;11.60;99.90;;;;;;4843973;29;20037;-84
2021/12/30 03:28:23;;;;;;;62.65;15.43;;;11.60;99.90;;;;;;4845083;29;20034;-84
2021/12/30 03:30:58;;;;;;;61.17;14.60;;;11.60;99.90;;;;;;4842678;29;20041;-85
2021/12/30 03:33:37;;;;;;;72.15;15.15;;;11.60;99.90;;;;;;4844203;29;20055;-85
2021/12/30 03:36:08;;;;;;;66.00;17.77;;;11.60;99.90;;;;;;4860390;29;20044;-85
2021/12/30 03:38:53;;;;;;;68.60;18.08;;;11.60;99.90;;;;;;4844005;29;20029;-86
2021/12/30 03:41:29;;;;;;;63.50;18.83;;;11.60;99.90;;;;;;4856316;29;20029;-84
2021/12/30 03:44:01;;;;;;;38.17;13.48;;;11.60;99.90;;;;;;4840148;29;20029;-85
2021/12/30 03:46:29;;;;;;;62.33;17.92;;;11.60;99.90;;;;;;4852292;29;20048;-85
2021/12/30 03:48:55;;;;;;;70.00;19.85;;;11.60;99.90;;;;;;4840462;29;20033;-81
2021/12/30 03:51:24;;;;;;;48.85;16.08;;;11.60;99.90;;;;;;4840624;29;20036;-79
2021/12/30 03:53:54;;;;;;;67.65;20.77;;;11.60;99.90;;;;;;4826743;29;20034;-78
2021/12/30 03:56:24;;;;;;;68.55;19.58;;;11.60;99.90;;;;;;4857035;29;20053;-79
2021/12/30 03:58:59;;;;;;;47.08;18.45;;;11.50;99.90;;;;;;4843069;29;20041;-79
2021/12/30 04:01:27;;;;;;;45.20;18.33;;;11.50;99.90;;;;;;4847399;29;20033;-80
2021/12/30 04:03:57;;;;;;;39.00;15.45;;;11.60;99.90;;;;;;4836627;29;20037;-79
2021/12/30 04:06:25;;;;;;;43.60;17.40;;;11.60;99.90;;;;;;4871324;29;20045;-79
2021/12/30 04:08:51;;;;;;;55.17;16.33;;;11.60;99.90;;;;;;4855779;29;20362;-79
2021/12/30 04:11:18;;;;;;;54.20;18.42;;;11.60;99.90;;;;;;4841538;29;20041;-79
2021/12/30 04:13:45;;;;;;;50.90;17.20;;;11.60;99.90;;;;;;4843668;29;20374;-79
2021/12/30 04:16:12;;;;;;;61.42;18.23;;;11.60;99.90;;;;;;4852809;29;20335;-79
2021/12/30 04:18:39;;;;;;;29.90;14.02;;;11.60;99.90;;;;;;4864676;29;20029;-79
2021/12/30 04:21:08;;;;;;;76.35;19.65;;;11.60;99.90;;;;;;4826206;29;20037;-79
2021/12/30 04:23:34;;;;;;;54.53;16.83;;;11.60;99.90;;;;;;4849905;29;20050;-79
2021/12/30 04:26:01;;;;;;;63.50;21.98;;;11.60;99.90;;;;;;4854663;29;20049;-78
2021/12/30 04:28:27;;;;;;;48.33;18.52;;;11.70;99.90;;;;;;4842637;29;20032;-79
2021/12/30 04:30:54;;;;;;;53.83;17.40;;;11.70;99.90;;;;;;4827122;29;20028;-79
2021/12/30 04:33:21;;;;;;;49.50;17.48;;;11.70;99.90;;;;;;4854162;29;20086;-79
2021/12/30 04:35:48;;;;;;;66.60;18.90;;;11.70;99.90;;;;;;4852633;29;20480;-78
2021/12/30 04:38:15;;;;;;;54.97;19.63;;;11.70;99.90;;;;;;4840559;29;20027;-79
2021/12/30 04:40:41;;;;;;;64.00;18.67;;;11.80;99.90;;;;;;4869075;29;20021;-78
2021/12/30 04:43:09;;;;;;;56.97;19.05;;;11.80;99.90;;;;;;4855294;29;20025;-80
2021/12/30 04:45:36;;;;;;;56.45;17.85;;;11.80;99.90;;;;;;4825548;29;20513;-78
2021/12/30 04:48:02;;;;;;;43.47;16.60;;;11.80;99.90;;;;;;4852796;29;20037;-77
2021/12/30 04:50:29;;;;;;;44.70;17.17;;;11.90;99.90;;;;;;4853697;29;20029;-78
2021/12/30 04:52:55;;;;;;;38.83;15.43;;;11.90;99.90;;;;;;4868766;29;20029;-78
2021/12/30 04:55:22;;;;;;;38.00;14.02;;;11.90;99.90;;;;;;4853247;29;20037;-79
2021/12/30 04:57:49;;;;;;;37.75;13.35;;;11.90;99.90;;;;;;4845972;29;20029;-80
2021/12/30 05:00:15;;;;;;;39.40;13.55;;;11.90;99.90;;;;;;4837283;29;20032;-80
2021/12/30 05:03:16;;;;;;;29.30;12.32;;;11.90;99.90;;;;;;4847036;29;20053;-79
2021/12/30 05:05:43;;;;;;;36.88;13.02;;;11.90;99.90;;;;;;4851642;29;20041;-79
2021/12/30 05:08:10;;;;;;;31.85;12.38;;;12.00;99.90;;;;;;4855768;29;20045;-78
2021/12/30 05:10:37;;;;;;;36.33;12.15;;;12.00;99.90;;;;;;4851788;29;20040;-79
2021/12/30 05:13:05;;;;;;;30.85;10.63;;;12.00;99.90;;;;;;4852194;29;20039;-78
2021/12/30 05:15:33;;;;;;;37.40;11.88;;;12.00;99.90;;;;;;4840251;29;20036;-78
2021/12/30 05:17:59;;;;;;;18.50;9.18;;;12.00;99.90;;;;;;4854895;29;20017;-78
2021/12/30 05:20:26;;;;;;;32.15;9.85;;;12.00;99.90;;;;;;4843812;29;20053;-79
2021/12/30 05:22:53;;;;;;;17.67;7.93;;;12.10;99.90;;;;;;4867213;29;21503;-80
2021/12/30 05:25:20;;;;;;;32.95;9.45;;;12.10;99.90;;;;;;4852949;29;20044;-79
2021/12/30 05:27:50;;;;;;;21.98;8.48;;;12.10;99.90;;;;;;4838370;29;20397;-79
2021/12/30 05:30:19;;;;;;;26.88;8.13;;;12.10;99.90;;;;;;4854836;29;20036;-79
2021/12/30 05:32:45;;;;;;;19.08;7.25;;;12.10;99.90;;;;;;4839667;29;20069;-80
2021/12/30 05:35:16;;;;;;;16.35;6.97;;;12.10;99.90;;;;;;4847868;29;20021;-79
2021/12/30 05:37:47;;;;;;;14.43;5.90;;;12.10;99.90;;;;;;4857407;29;20053;-79
2021/12/30 05:40:17;;;;;;;12.73;4.68;;;12.10;99.90;;;;;;4849963;29;20038;-79
2021/12/30 05:42:44;;;;;;;14.23;4.93;;;12.20;99.90;;;;;;4866009;29;20056;-79
2021/12/30 05:45:14;;;;;;;16.60;5.93;;;12.10;99.90;;;;;;4846965;29;20029;-80
2021/12/30 05:47:41;;;;;;;9.07;4.20;;;12.10;99.90;;;;;;4854767;29;20037;-79
2021/12/30 05:50:09;;;;;;;14.45;4.88;;;12.20;99.90;;;;;;4840256;29;20052;-79
2021/12/30 05:52:37;;;;;;;13.65;5.50;;;12.20;99.90;;;;;;4854245;29;20048;-78
2021/12/30 05:55:06;;;;;;;17.23;6.78;;;12.20;99.90;;;;;;4868897;29;20163;-78
2021/12/30 05:57:33;;;;;;;8.60;4.35;;;12.20;99.90;;;;;;4853627;29;20044;-78
2021/12/30 06:00:00;;;;;;;9.73;3.97;;;12.20;99.90;;;;;;4853607;29;20045;-84
2021/12/30 06:02:28;;;;;;;7.72;4.30;;;12.20;99.90;;;;;;4839890;29;20516;-84
2021/12/30 06:04:55;;;;;;;12.48;6.53;;;12.20;99.90;;;;;;4856972;29;20045;-84
2021/12/30 06:07:21;;;;;;;17.77;9.68;;;12.20;99.90;;;;;;4856157;29;20045;-84
2021/12/30 06:09:48;;;;;;;16.33;9.60;;;12.20;99.90;;;;;;4825971;29;20442;-79
2021/12/30 06:12:14;;;;;;;20.58;10.55;;;12.20;99.90;;;;;;4852107;29;20033;-79
2021/12/30 06:14:41;;;;;;;24.30;11.95;;;12.30;99.90;;;;;;4868594;29;20029;-80
2021/12/30 06:17:08;;;;;;;27.52;15.43;;;12.30;99.90;;;;;;4853420;29;20507;-79
2021/12/30 06:19:34;;;;;;;24.92;15.73;;;12.40;99.90;;;;;;4854655;29;20037;-80
2021/12/30 06:22:01;;;;;;;54.17;21.52;;;12.30;99.90;;;;;;4866729;29;20048;-79
2021/12/30 06:24:28;;;;;;;28.35;17.35;;;12.40;99.90;;;;;;4839399;29;20033;-80
2021/12/30 06:26:54;;;;;;;28.02;16.55;;;12.40;99.90;;;;;;4841749;29;20055;-80
2021/12/30 06:29:21;;;;;;;28.40;15.90;;;12.40;99.90;;;;;;4869668;29;20037;-80
2021/12/30 06:31:50;;;;;;;28.17;17.05;;;12.40;99.90;;;;;;4869720;29;20032;-80
2021/12/30 06:34:17;;;;;;;24.15;16.67;;;12.40;99.90;;;;;;4851616;29;20057;-80
2021/12/30 06:36:43;;;;;;;29.65;17.65;;;12.40;99.90;;;;;;4855155;29;20355;-80
2021/12/30 06:39:10;;;;;;;39.13;22.70;;;12.40;99.90;;;;;;4871119;29;20040;-80
2021/12/30 06:41:37;;;;;;;35.05;20.48;;;12.40;99.90;;;;;;4839600;29;20042;-80
2021/12/30 06:44:06;;;;;;;37.55;24.73;;;12.40;99.90;;;;;;4869930;29;20029;-81
2021/12/30 06:46:39;;;;;;;32.70;23.27;;;12.40;99.90;;;;;;4853334;29;20041;-81
2021/12/30 06:49:09;;;;;;;32.90;22.80;;;12.40;99.90;;;;;;4865296;29;20045;-83
2021/12/30 06:51:36;;;;;;;36.20;23.10;;;12.40;99.90;;;;;;4865390;29;20033;-78
2021/12/30 06:54:03;;;;;;;25.27;16.70;;;12.40;99.90;;;;;;4842348;29;20029;-79
2021/12/30 06:56:30;;;;;;;21.98;13.60;;;12.50;99.90;;;;;;4852291;29;20028;-88
2021/12/30 06:58:57;;;;;;;14.27;10.43;;;12.50;99.90;;;;;;4840653;29;20040;-79
2021/12/30 07:01:24;;;;;;;37.83;26.73;;;12.40;99.90;;;;;;4834279;29;20028;-80
2021/12/30 07:03:50;;;;;;;11.82;8.82;;;12.40;99.90;;;;;;4853164;29;20044;-80
2021/12/30 07:06:17;;;;;;;14.23;7.20;;;12.40;99.90;;;;;;4836141;29;20417;-81
2021/12/30 07:08:44;;;;;;;8.77;6.45;;;12.40;99.90;;;;;;4850525;29;20488;-82
2021/12/30 07:11:10;;;;;;;10.68;7.25;;;12.40;99.90;;;;;;4833787;29;20060;-82
2021/12/30 07:13:37;;;;;;;12.35;7.80;;;12.40;99.90;;;;;;4869301;29;20033;-82
2021/12/30 07:16:04;;;;;;;14.68;7.57;;;12.40;99.90;;;;;;4844687;29;20068;-82
2021/12/30 07:18:33;;;;;;;8.38;5.95;;;12.40;99.90;;;;;;4826979;29;20033;-84
2021/12/30 07:21:01;;;;;;;11.02;7.07;;;12.40;99.90;;;;;;4866861;29;20037;-82
2021/12/30 07:23:27;;;;;;;10.52;6.60;;;12.40;99.90;;;;;;4838913;29;20033;-82
2021/12/30 07:25:54;;;;;;;8.43;5.80;;;12.40;99.90;;;;;;4838009;29;20103;-81
2021/12/30 07:28:20;;;;;;;8.90;6.43;;;12.40;99.90;;;;;;4853336;29;20493;-81
2021/12/30 07:30:47;;;;;;;13.13;8.40;;;12.40;99.90;;;;;;4868845;29;20508;-81
2021/12/30 07:33:13;;;;;;;11.20;7.05;;;12.40;99.90;;;;;;4842631;29;20697;-81
2021/12/30 07:35:40;;;;;;;10.32;7.65;;;12.40;99.90;;;;;;4855178;29;20041;-81
2021/12/30 07:38:06;;;;;;;17.00;10.32;;;12.40;99.90;;;;;;4856344;29;20045;-81
2021/12/30 07:40:33;;;;;;;15.95;9.60;;;12.50;99.90;;;;;;4857925;29;20821;-81
2021/12/30 07:43:00;;;;;;;17.08;10.98;;;12.40;99.90;;;;;;4824212;29;20064;-81
2021/12/30 07:45:27;;;;;;;21.23;11.55;;;12.40;99.90;;;;;;4853363;29;20485;-81
2021/12/30 07:47:53;;;;;;;19.02;11.30;;;12.50;99.90;;;;;;4842181;29;20041;-81
2021/12/30 07:50:22;;;;;;;20.98;13.25;;;12.50;99.90;;;;;;4859902;29;20043;-81
2021/12/30 07:52:50;;;;;;;21.38;12.52;;;12.50;99.90;;;;;;4852164;29;20041;-81
2021/12/30 07:55:16;;;;;;;21.70;13.32;;;12.60;99.90;;;;;;4831898;29;20037;-81
2021/12/30 07:57:43;;;;;;;19.25;11.85;;;12.60;99.90;;;;;;4859762;29;20055;-81
2021/12/30 08:00:13;;;;;;;22.80;13.40;;;12.60;99.90;;;;;;4842675;29;20045;-81
2021/12/30 08:02:42;;;;;;;26.58;15.98;;;12.60;99.90;;;;;;4874419;29;20032;-81
2021/12/30 08:05:11;;;;;;;28.10;15.93;;;12.60;99.90;;;;;;4844218;29;20049;-81
2021/12/30 08:07:37;;;;;;;30.60;18.65;;;12.60;99.90;;;;;;4861117;29;20048;-82
2021/12/30 08:10:10;;;;;;;32.42;19.13;;;12.60;99.90;;;;;;4877094;29;20048;-82
2021/12/30 08:12:39;;;;;;;29.70;18.30;;;12.60;99.90;;;;;;4847293;29;20043;-81
2021/12/30 08:15:06;;;;;;;31.52;19.25;;;12.70;99.90;;;;;;4857724;29;20025;-81
2021/12/30 08:17:35;;;;;;;35.88;20.52;;;12.70;99.90;;;;;;4860401;29;20063;-82
2021/12/30 08:20:12;;;;;;;35.13;20.27;;;12.70;99.90;;;;;;4864615;29;20049;-81
2021/12/30 08:22:39;;;;;;;36.75;20.00;;;12.70;99.90;;;;;;4873911;29;20033;-81
2021/12/30 08:25:07;;;;;;;31.70;17.88;;;12.70;99.90;;;;;;4877826;29;20386;-82
2021/12/30 08:27:35;;;;;;;33.95;18.15;;;12.80;99.90;;;;;;4874119;29;20041;-82
2021/12/30 08:30:05;;;;;;;29.00;15.70;;;12.80;99.90;;;;;;4863447;29;20385;-82
2021/12/30 08:32:32;;;;;;;27.33;17.00;;;12.80;99.90;;;;;;4859630;29;20032;-81
2021/12/30 08:34:58;;;;;;;28.65;15.82;;;12.80;99.90;;;;;;4858742;29;20044;-82
2021/12/30 08:37:25;;;;;;;29.52;17.90;;;12.90;99.90;;;;;;4860795;29;20049;-82
2021/12/30 08:39:51;;;;;;;30.92;16.60;;;12.90;99.90;;;;;;4845884;29;20041;-82
2021/12/30 08:42:25;;;;;;;20.90;13.77;;;13.00;99.90;;;;;;4859489;29;20383;-82
2021/12/30 08:44:56;;;;;;;21.60;13.63;;;13.00;99.90;;;;;;4855181;29;20037;-82
2021/12/30 08:47:24;;;;;;;20.42;13.82;;;13.00;99.90;;;;;;4874482;29;20040;-82
2021/12/30 08:49:50;;;;;;;20.70;13.65;;;13.10;99.90;;;;;;4861855;29;20402;-81
2021/12/30 08:52:20;;;;;;;20.77;14.45;;;13.10;99.90;;;;;;4857037;29;20041;-82
2021/12/30 08:54:48;;;;;;;21.58;13.15;;;13.10;99.90;;;;;;4829739;29;20037;-81
2021/12/30 08:57:18;;;;;;;19.33;12.45;;;13.10;99.90;;;;;;4874060;29;20055;-83
2021/12/30 08:59:47;;;;;;;15.85;12.02;;;13.10;99.90;;;;;;4855471;29;20039;-84
2021/12/30 09:02:14;;;;;;;13.98;11.65;;;13.10;99.90;;;;;;4869259;29;20048;-80
2021/12/30 09:04:45;;;;;;;16.27;11.48;;;13.10;99.90;;;;;;4847499;29;20049;-79
2021/12/30 09:07:12;;;;;;;17.25;11.90;;;13.10;99.90;;;;;;4853969;29;20056;-79
2021/12/30 09:09:40;;;;;;;17.63;12.18;;;13.20;99.90;;;;;;4855376;29;20037;-80
2021/12/30 09:12:07;;;;;;;18.75;12.05;;;13.20;99.90;;;;;;4850640;29;20512;-79
2021/12/30 09:14:34;;;;;;;19.45;12.52;;;13.20;99.90;;;;;;4848861;29;20382;-80
2021/12/30 09:17:00;;;;;;;17.45;10.90;;;13.20;99.90;;;;;;4841896;29;20052;-82
2021/12/30 09:19:27;;;;;;;18.90;12.05;;;13.20;99.90;;;;;;4827158;29;20047;-81
2021/12/30 09:21:53;;;;;;;16.95;10.63;;;13.20;99.90;;;;;;4826481;29;20037;-80
2021/12/30 09:24:20;;;;;;;14.65;10.18;;;13.20;99.90;;;;;;4854264;29;20029;-80
2021/12/30 09:26:47;;;;;;;16.42;10.38;;;13.30;99.90;;;;;;4852866;29;20052;-79
2021/12/30 09:29:14;;;;;;;17.67;9.98;;;13.30;99.90;;;;;;4859837;29;20029;-80
2021/12/30 09:31:46;;;;;;;16.80;9.75;;;13.30;99.90;;;;;;4870872;29;20505;-80
2021/12/30 09:34:17;;;;;;;16.05;8.68;;;13.20;99.90;;;;;;4867489;29;20542;-81
2021/12/30 09:36:44;;;;;;;16.35;8.90;;;13.30;99.90;;;;;;4842161;29;20477;-81
2021/12/30 09:39:13;;;;;;;15.68;8.50;;;13.30;99.90;;;;;;4851627;29;20037;-80
2021/12/30 09:41:44;;;;;;;18.08;7.93;;;13.20;99.90;;;;;;4852090;29;20040;-77
2021/12/30 09:44:14;;;;;;;16.67;8.27;;;13.30;99.90;;;;;;4868203;29;20041;-81
2021/12/30 09:46:42;;;;;;;11.68;7.90;;;13.30;99.90;;;;;;4868346;29;20037;-79
2021/12/30 09:49:12;;;;;;;17.05;7.28;;;13.30;99.90;;;;;;4842985;29;20037;-80
2021/12/30 09:51:41;;;;;;;18.33;8.40;;;13.30;99.90;;;;;;4854813;29;20509;-80
2021/12/30 09:54:08;;;;;;;13.90;6.30;;;13.40;99.90;;;;;;4852440;29;20025;-79
2021/12/30 09:56:34;;;;;;;13.82;6.35;;;13.30;99.90;;;;;;4869091;29;20485;-79
2021/12/30 09:59:01;;;;;;;16.63;5.82;;;13.40;99.90;;;;;;4853903;29;20061;-79
2021/12/30 10:01:28;;;;;;;11.23;4.35;;;13.40;99.90;;;;;;4865025;29;20044;-80
2021/12/30 10:04:01;;;;;;;16.80;5.32;;;13.50;99.90;;;;;;4863622;29;20513;-80
2021/12/30 10:06:29;;;;;;;14.73;4.78;;;13.50;99.90;;;;;;4850627;29;20033;-80
2021/12/30 10:09:09;;;;;;;12.48;5.07;;;13.60;99.90;;;;;;4851060;29;20383;-79
2021/12/30 10:12:00;;;;;;;14.95;4.60;;;13.70;99.90;;;;;;4863833;29;20509;-79
2021/12/30 10:14:33;;;;;;;14.55;5.03;;;13.70;99.90;;;;;;4837103;29;20048;-80
2021/12/30 10:17:22;;;;;;;13.85;4.53;;;13.70;99.90;;;;;;4856272;29;20032;-82
2021/12/30 10:19:52;;;;;;;14.15;4.28;;;13.70;99.90;;;;;;4872059;29;20053;-83
2021/12/30 10:22:23;;;;;;;14.15;4.75;;;13.70;99.90;;;;;;4874347;29;20088;-79
2021/12/30 10:24:51;;;;;;;15.95;4.47;;;13.70;99.90;;;;;;4848857;29;20486;-80
2021/12/30 10:27:30;;;;;;;13.38;3.15;;;13.70;99.90;;;;;;4851189;29;20493;-79
2021/12/30 10:29:57;;;;;;;16.75;4.35;;;13.70;99.90;;;;;;4848213;29;20041;-79
2021/12/30 10:32:29;;;;;;;13.00;3.70;;;13.70;99.90;;;;;;4851865;29;20041;-79
2021/12/30 10:35:03;;;;;;;15.43;4.00;;;13.70;99.90;;;;;;4863233;29;20037;-79
2021/12/30 10:37:30;;;;;;;14.02;3.65;;;13.70;99.90;;;;;;4848506;29;20029;-80
2021/12/30 10:39:56;;;;;;;12.35;3.08;;;13.70;99.90;;;;;;4850485;29;20041;-81
2021/12/30 10:42:23;;;;;;;16.38;3.83;;;13.70;99.90;;;;;;4833875;29;20523;-80
2021/12/30 10:44:56;;;;;;;13.85;3.85;;;13.70;99.90;;;;;;4848788;29;20032;-81
2021/12/30 10:47:28;;;;;;;16.27;5.45;;;13.70;99.90;;;;;;4864794;29;20045;-81
2021/12/30 10:50:05;;;;;;;16.17;5.88;;;13.70;99.90;;;;;;4850245;29;20489;-78
2021/12/30 10:52:44;;;;;;;12.75;4.85;;;13.70;99.90;;;;;;4847282;29;20029;-78
2021/12/30 10:55:13;;;;;;;17.52;4.78;;;13.70;99.90;;;;;;4865996;29;20041;-80
2021/12/30 10:57:43;;;;;;;14.93;5.13;;;13.70;99.90;;;;;;4832810;29;20060;-81
2021/12/30 11:00:10;;;;;;;13.75;5.63;;;13.70;99.90;;;;;;4853334;29;20046;-82
2021/12/30 11:02:37;;;;;;;19.25;5.82;;;13.70;99.90;;;;;;4849560;29;20512;-79
2021/12/30 11:05:10;;;;;;;16.75;6.25;;;13.80;99.90;;;;;;4850241;29;20401;-79
2021/12/30 11:07:51;;;;;;;17.73;6.72;;;13.80;99.90;;;;;;4850472;29;20059;-79
2021/12/30 11:10:30;;;;;;;14.65;6.50;;;13.80;99.90;;;;;;4837505;29;20029;-81
2021/12/30 11:13:12;;;;;;;14.57;6.00;;;13.80;99.90;;;;;;4835772;29;20047;-80
2021/12/30 11:15:41;;;;;;;16.95;5.43;;;13.80;99.90;;;;;;4866021;29;20041;-80
2021/12/30 11:18:11;;;;;;;20.40;6.40;;;13.80;99.90;;;;;;4838216;29;20041;-80
2021/12/30 11:20:43;;;;;;;14.93;6.28;;;13.80;99.90;;;;;;4872873;29;20052;-81
2021/12/30 11:23:12;;;;;;;21.10;6.10;;;13.80;99.90;;;;;;4851856;29;20060;-80
2021/12/30 11:25:39;;;;;;;13.77;5.43;;;13.80;99.90;;;;;;4857158;29;20621;-81
2021/12/30 11:28:05;;;;;;;17.33;5.40;;;13.80;99.90;;;;;;4869256;29;20047;-79
2021/12/30 11:30:32;;;;;;;19.10;4.63;;;13.80;99.90;;;;;;4841546;29;20044;-80
2021/12/30 11:32:59;;;;;;;13.43;5.80;;;13.80;99.90;;;;;;4844235;29;20044;-80
2021/12/30 11:35:27;;;;;;;17.73;5.80;;;13.80;99.90;;;;;;4841997;29;20397;-79
2021/12/30 11:37:55;;;;;;;13.10;4.22;;;13.80;99.90;;;;;;4844848;29;20044;-79
2021/12/30 11:40:25;;;;;;;18.13;5.38;;;13.80;99.90;;;;;;4856488;29;20059;-80
2021/12/30 11:43:07;;;;;;;13.85;4.65;;;13.80;99.90;;;;;;4844110;29;20037;-76
2021/12/30 11:45:41;;;;;;;13.52;4.03;;;13.80;99.90;;;;;;4859732;29;20033;-77
2021/12/30 11:48:29;;;;;;;15.27;4.93;;;13.80;99.90;;;;;;4856454;29;20049;-78
2021/12/30 11:51:18;;;;;;;14.48;5.45;;;13.80;99.90;;;;;;4875333;29;20464;-83
2021/12/30 11:53:46;;;;;;;13.93;4.22;;;13.80;99.90;;;;;;4871210;29;20055;-79
2021/12/30 11:56:19;;;;;;;15.20;4.00;;;13.80;99.90;;;;;;4830134;29;20029;-79
2021/12/30 11:58:48;;;;;;;12.90;2.97;;;13.80;99.90;;;;;;4859399;29;20040;-82
2021/12/30 12:01:55;;;;;;;14.52;3.70;;;13.80;99.90;;;;;;4878931;29;20028;-82
2021/12/30 12:04:34;;;;;;;11.18;3.45;;;13.90;99.90;;;;;;4854027;29;20053;-83
2021/12/30 12:07:03;;;;;;;15.70;3.63;;;13.80;99.90;;;;;;4825671;29;20061;-82
2021/12/30 12:09:31;;;;;;;18.83;3.95;;;13.90;99.90;;;;;;4859347;29;20037;-84
2021/12/30 12:12:02;;;;;;;17.15;3.95;;;13.90;99.90;;;;;;4857802;29;20029;-80
2021/12/30 12:14:36;;;;;;;12.40;3.60;;;13.80;99.90;;;;;;4856722;29;20057;-81
2021/12/30 12:17:32;;;;;;;15.73;4.40;;;13.90;99.90;;;;;;4854063;29;20399;-81
2021/12/30 12:20:14;;;;;;;14.85;3.25;;;13.80;99.90;;;;;;4850730;29;20041;-81
2021/12/30 12:22:41;;;;;;;16.60;3.60;;;13.80;99.90;;;;;;4838605;29;20038;-83
2021/12/30 12:25:14;;;;;;;11.57;3.33;;;13.80;99.90;;;;;;4855733;29;20030;-81
2021/12/30 12:28:18;;;;;;;11.63;3.47;;;13.80;99.90;;;;;;4829001;29;20049;-81
2021/12/30 12:31:06;;;;;;;12.48;3.17;;;13.80;99.90;;;;;;4829452;29;20049;-86
2021/12/30 12:33:46;;;;;;;10.07;4.95;;;13.80;99.90;;;;;;4827439;29;20045;-83
2021/12/30 12:36:18;;;;;;;11.70;4.45;;;13.80;99.90;;;;;;4844251;29;20029;-82
2021/12/30 12:39:28;;;;;;;12.15;4.22;;;13.80;99.90;;;;;;4855156;29;20049;-84
2021/12/30 12:41:56;;;;;;;9.85;4.03;;;13.80;99.90;;;;;;4830372;29;20056;-85
2021/12/30 12:44:25;;;;;;;12.48;3.50;;;13.80;99.90;;;;;;4825493;29;20033;-84
2021/12/30 12:47:27;;;;;;;15.52;3.85;;;13.80;99.90;;;;;;4831028;29;20033;-83
2021/12/30 12:50:07;;;;;;;16.13;4.13;;;13.80;99.90;;;;;;4854079;29;20045;-83